sensor_id;sensor_type;location;lat;lon;timestamp;temperature;humidity
7658;DHT22;8462;53.156;8.220;2023-12-20T00:00:35;8.10;99.90
7658;DHT22;8462;53.156;8.220;2023-12-20T00:03:03;8.20;99.90
7658;DHT22;8462;53.156;8.220;2023-12-20T00:05:30;8.20;99.90
7658;DHT22;8462;53.156;8.220;2023-12-20T00:07:58;8.20;99.90
7658;DHT22;8462;53.156;8.220;2023-12-20T00:10:26;8.20;99.90
7658;DHT22;8462;53.156;8.220;2023-12-20T00:12:54;8.20;99.90
7658;DHT22;8462;53.156;8.220;2023-12-20T00:15:21;8.10;99.90
7658;DHT22;8462;53.156;8.220;2023-12-20T00:17:48;8.20;99.90
7658;DHT22;8462;53.156;8.220;2023-12-20T00:20:16;8.10;99.90
7658;DHT22;8462;53.156;8.220;2023-12-20T00:22:42;8.10;99.90
7658;DHT22;8462;53.156;8.220;2023-12-20T00:25:09;8.10;99.90
7658;DHT22;8462;53.156;8.220;2023-12-20T00:27:36;8.10;99.90
7658;DHT22;8462;53.156;8.220;2023-12-20T00:30:06;8.10;99.90
7658;DHT22;8462;53.156;8.220;2023-12-20T00:32:34;8.10;99.90
7658;DHT22;8462;53.156;8.220;2023-12-20T00:35:01;8.10;99.90
7658;DHT22;8462;53.156;8.220;2023-12-20T00:37:28;8.00;99.90
7658;DHT22;8462;53.156;8.220;2023-12-20T00:39:55;8.00;99.90
7658;DHT22;8462;53.156;8.220;2023-12-20T00:42:25;8.00;99.90
7658;DHT22;8462;53.156;8.220;2023-12-20T00:44:55;8.00;99.90
7658;DHT22;8462;53.156;8.220;2023-12-20T00:47:23;8.00;99.90
7658;DHT22;8462;53.156;8.220;2023-12-20T00:49:52;8.00;99.90
7658;DHT22;8462;53.156;8.220;2023-12-20T00:52:18;8.00;99.90
7658;DHT22;8462;53.156;8.220;2023-12-20T00:54:48;8.00;99.90
7658;DHT22;8462;53.156;8.220;2023-12-20T00:57:15;8.00;99.90
7658;DHT22;8462;53.156;8.220;2023-12-20T00:59:42;8.00;99.90
7658;DHT22;8462;53.156;8.220;2023-12-20T01:02:09;8.00;99.90
7658;DHT22;8462;53.156;8.220;2023-12-20T01:04:39;8.10;99.90
7658;DHT22;8462;53.156;8.220;2023-12-20T01:07:06;8.10;99.90
7658;DHT22;8462;53.156;8.220;2023-12-20T01:09:39;8.10;99.90
7658;DHT22;8462;53.156;8.220;2023-12-20T01:12:06;8.10;99.90
7658;DHT22;8462;53.156;8.220;2023-12-20T01:14:33;8.10;99.90
7658;DHT22;8462;53.156;8.220;2023-12-20T01:17:00;8.10;99.90
7658;DHT22;8462;53.156;8.220;2023-12-20T01:19:27;8.10;99.90
7658;DHT22;8462;53.156;8.220;2023-12-20T01:21:56;8.10;99.90
7658;DHT22;8462;53.156;8.220;2023-12-20T01:24:23;8.00;99.90
7658;DHT22;8462;53.156;8.220;2023-12-20T01:26:51;8.00;99.90
7658;DHT22;8462;53.156;8.220;2023-12-20T01:29:18;8.10;99.90
7658;DHT22;8462;53.156;8.220;2023-12-20T01:31:45;8.00;99.90
7658;DHT22;8462;53.156;8.220;2023-12-20T01:34:12;8.00;99.90
7658;DHT22;8462;53.156;8.220;2023-12-20T01:36:39;8.00;99.90
7658;DHT22;8462;53.156;8.220;2023-12-20T01:39:08;8.00;99.90
7658;DHT22;8462;53.156;8.220;2023-12-20T01:41:35;8.00;99.90
7658;DHT22;8462;53.156;8.220;2023-12-20T01:44:01;7.90;99.90
7658;DHT22;8462;53.156;8.220;2023-12-20T01:46:30;8.00;99.90
7658;DHT22;8462;53.156;8.220;2023-12-20T01:48:57;8.00;99.90
7658;DHT22;8462;53.156;8.220;2023-12-20T01:51:25;8.00;99.90
7658;DHT22;8462;53.156;8.220;2023-12-20T01:53:54;8.00;99.90
7658;DHT22;8462;53.156;8.220;2023-12-20T01:56:23;8.00;99.90
7658;DHT22;8462;53.156;8.220;2023-12-20T01:58:50;8.00;99.90
7658;DHT22;8462;53.156;8.220;2023-12-20T02:01:18;8.00;99.90
7658;DHT22;8462;53.156;8.220;2023-12-20T02:03:47;8.00;99.90
7658;DHT22;8462;53.156;8.220;2023-12-20T02:06:15;8.00;99.90
7658;DHT22;8462;53.156;8.220;2023-12-20T02:08:42;8.00;99.90
7658;DHT22;8462;53.156;8.220;2023-12-20T02:11:10;8.00;99.90
7658;DHT22;8462;53.156;8.220;2023-12-20T02:13:38;8.10;99.90
7658;DHT22;8462;53.156;8.220;2023-12-20T02:16:05;8.10;99.90
7658;DHT22;8462;53.156;8.220;2023-12-20T02:18:33;8.10;99.90
7658;DHT22;8462;53.156;8.220;2023-12-20T02:21:00;8.10;99.90
7658;DHT22;8462;53.156;8.220;2023-12-20T02:23:29;8.20;99.90
7658;DHT22;8462;53.156;8.220;2023-12-20T02:25:56;8.20;99.90
7658;DHT22;8462;53.156;8.220;2023-12-20T02:28:23;8.20;99.90
7658;DHT22;8462;53.156;8.220;2023-12-20T02:30:50;8.20;99.90
7658;DHT22;8462;53.156;8.220;2023-12-20T02:33:17;8.20;99.90
7658;DHT22;8462;53.156;8.220;2023-12-20T02:35:44;8.20;99.90
7658;DHT22;8462;53.156;8.220;2023-12-20T02:38:11;8.30;99.90
7658;DHT22;8462;53.156;8.220;2023-12-20T02:40:40;8.30;99.90
7658;DHT22;8462;53.156;8.220;2023-12-20T02:43:07;8.30;99.90
7658;DHT22;8462;53.156;8.220;2023-12-20T02:45:34;8.40;99.90
7658;DHT22;8462;53.156;8.220;2023-12-20T02:48:01;8.40;99.90
7658;DHT22;8462;53.156;8.220;2023-12-20T02:50:29;8.40;99.90
7658;DHT22;8462;53.156;8.220;2023-12-20T02:52:56;8.40;99.90
7658;DHT22;8462;53.156;8.220;2023-12-20T02:55:23;8.40;99.90
7658;DHT22;8462;53.156;8.220;2023-12-20T02:57:51;8.40;99.90
7658;DHT22;8462;53.156;8.220;2023-12-20T03:00:19;8.40;99.90
7658;DHT22;8462;53.156;8.220;2023-12-20T03:02:46;8.40;99.90
7658;DHT22;8462;53.156;8.220;2023-12-20T03:05:15;8.40;99.90
7658;DHT22;8462;53.156;8.220;2023-12-20T03:07:42;8.40;99.90
7658;DHT22;8462;53.156;8.220;2023-12-20T03:10:09;8.50;99.90
7658;DHT22;8462;53.156;8.220;2023-12-20T03:12:37;8.50;99.90
7658;DHT22;8462;53.156;8.220;2023-12-20T03:15:06;8.50;99.90
7658;DHT22;8462;53.156;8.220;2023-12-20T03:17:33;8.50;99.90
7658;DHT22;8462;53.156;8.220;2023-12-20T03:20:01;8.50;99.90
7658;DHT22;8462;53.156;8.220;2023-12-20T03:22:29;8.50;99.90
7658;DHT22;8462;53.156;8.220;2023-12-20T03:24:56;8.50;99.90
7658;DHT22;8462;53.156;8.220;2023-12-20T03:27:23;8.50;99.90
7658;DHT22;8462;53.156;8.220;2023-12-20T03:29:49;8.60;99.90
7658;DHT22;8462;53.156;8.220;2023-12-20T03:32:18;8.60;99.90
7658;DHT22;8462;53.156;8.220;2023-12-20T03:34:45;8.60;99.90
7658;DHT22;8462;53.156;8.220;2023-12-20T03:37:12;8.60;99.90
7658;DHT22;8462;53.156;8.220;2023-12-20T03:39:38;8.60;99.90
7658;DHT22;8462;53.156;8.220;2023-12-20T03:42:06;8.60;99.90
7658;DHT22;8462;53.156;8.220;2023-12-20T03:44:33;8.60;99.90
7658;DHT22;8462;53.156;8.220;2023-12-20T03:47:00;8.70;99.90
7658;DHT22;8462;53.156;8.220;2023-12-20T03:49:29;8.70;99.90
7658;DHT22;8462;53.156;8.220;2023-12-20T03:51:56;8.70;99.90
7658;DHT22;8462;53.156;8.220;2023-12-20T03:54:24;8.70;99.90
7658;DHT22;8462;53.156;8.220;2023-12-20T03:56:51;8.70;99.90
7658;DHT22;8462;53.156;8.220;2023-12-20T03:59:18;8.70;99.90
7658;DHT22;8462;53.156;8.220;2023-12-20T04:01:45;8.70;99.90
7658;DHT22;8462;53.156;8.220;2023-12-20T04:04:13;8.70;99.90
7658;DHT22;8462;53.156;8.220;2023-12-20T04:06:42;8.70;99.90
7658;DHT22;8462;53.156;8.220;2023-12-20T04:09:09;8.70;99.90
7658;DHT22;8462;53.156;8.220;2023-12-20T04:11:36;8.60;99.90
7658;DHT22;8462;53.156;8.220;2023-12-20T04:14:04;8.60;99.90
7658;DHT22;8462;53.156;8.220;2023-12-20T04:16:32;8.60;99.90
7658;DHT22;8462;53.156;8.220;2023-12-20T04:18:59;8.60;99.90
7658;DHT22;8462;53.156;8.220;2023-12-20T04:21:26;8.60;99.90
7658;DHT22;8462;53.156;8.220;2023-12-20T04:23:55;8.60;99.90
7658;DHT22;8462;53.156;8.220;2023-12-20T04:26:22;8.60;99.90
7658;DHT22;8462;53.156;8.220;2023-12-20T04:28:50;8.60;99.90
7658;DHT22;8462;53.156;8.220;2023-12-20T04:31:16;8.50;99.90
7658;DHT22;8462;53.156;8.220;2023-12-20T04:33:44;8.50;99.90
7658;DHT22;8462;53.156;8.220;2023-12-20T04:36:11;8.50;99.90
7658;DHT22;8462;53.156;8.220;2023-12-20T04:38:38;8.50;99.90
7658;DHT22;8462;53.156;8.220;2023-12-20T04:41:06;8.60;99.90
7658;DHT22;8462;53.156;8.220;2023-12-20T04:43:33;8.60;99.90
7658;DHT22;8462;53.156;8.220;2023-12-20T04:46:00;8.60;99.90
7658;DHT22;8462;53.156;8.220;2023-12-20T04:48:27;8.60;99.90
7658;DHT22;8462;53.156;8.220;2023-12-20T04:50:54;8.70;99.90
7658;DHT22;8462;53.156;8.220;2023-12-20T04:53:21;8.70;99.90
7658;DHT22;8462;53.156;8.220;2023-12-20T04:55:48;8.80;99.90
7658;DHT22;8462;53.156;8.220;2023-12-20T04:58:17;8.80;99.90
7658;DHT22;8462;53.156;8.220;2023-12-20T05:00:44;8.80;99.90
7658;DHT22;8462;53.156;8.220;2023-12-20T05:03:10;8.80;99.90
7658;DHT22;8462;53.156;8.220;2023-12-20T05:05:40;8.80;99.90
7658;DHT22;8462;53.156;8.220;2023-12-20T05:08:07;8.80;99.90
7658;DHT22;8462;53.156;8.220;2023-12-20T05:10:34;8.80;99.90
7658;DHT22;8462;53.156;8.220;2023-12-20T05:13:02;8.70;99.90
7658;DHT22;8462;53.156;8.220;2023-12-20T05:15:31;8.70;99.90
7658;DHT22;8462;53.156;8.220;2023-12-20T05:17:58;8.70;99.90
7658;DHT22;8462;53.156;8.220;2023-12-20T05:20:25;8.70;99.90
7658;DHT22;8462;53.156;8.220;2023-12-20T05:22:52;8.70;99.90
7658;DHT22;8462;53.156;8.220;2023-12-20T05:25:19;8.70;99.90
7658;DHT22;8462;53.156;8.220;2023-12-20T05:27:46;8.70;99.90
7658;DHT22;8462;53.156;8.220;2023-12-20T05:30:13;8.70;99.90
7658;DHT22;8462;53.156;8.220;2023-12-20T05:32:41;8.70;99.90
7658;DHT22;8462;53.156;8.220;2023-12-20T05:35:08;8.70;99.90
7658;DHT22;8462;53.156;8.220;2023-12-20T05:37:35;8.80;99.90
7658;DHT22;8462;53.156;8.220;2023-12-20T05:40:03;8.80;99.90
7658;DHT22;8462;53.156;8.220;2023-12-20T05:42:31;8.80;99.90
7658;DHT22;8462;53.156;8.220;2023-12-20T05:44:57;8.80;99.90
7658;DHT22;8462;53.156;8.220;2023-12-20T05:47:24;8.80;99.90
7658;DHT22;8462;53.156;8.220;2023-12-20T05:49:53;8.80;99.90
7658;DHT22;8462;53.156;8.220;2023-12-20T05:52:20;8.80;99.90
7658;DHT22;8462;53.156;8.220;2023-12-20T05:54:47;8.90;99.90
7658;DHT22;8462;53.156;8.220;2023-12-20T05:57:14;8.80;99.90
7658;DHT22;8462;53.156;8.220;2023-12-20T05:59:42;8.80;99.90
7658;DHT22;8462;53.156;8.220;2023-12-20T06:02:08;8.90;99.90
7658;DHT22;8462;53.156;8.220;2023-12-20T06:04:36;8.90;99.90
7658;DHT22;8462;53.156;8.220;2023-12-20T06:07:04;8.90;99.90
7658;DHT22;8462;53.156;8.220;2023-12-20T06:09:31;8.90;99.90
7658;DHT22;8462;53.156;8.220;2023-12-20T06:11:58;8.90;99.90
7658;DHT22;8462;53.156;8.220;2023-12-20T06:14:27;8.90;99.90
7658;DHT22;8462;53.156;8.220;2023-12-20T06:16:54;8.90;99.90
7658;DHT22;8462;53.156;8.220;2023-12-20T06:19:21;8.90;99.90
7658;DHT22;8462;53.156;8.220;2023-12-20T06:21:48;8.90;99.90
7658;DHT22;8462;53.156;8.220;2023-12-20T06:24:17;8.90;99.90
7658;DHT22;8462;53.156;8.220;2023-12-20T06:26:44;8.90;99.90
7658;DHT22;8462;53.156;8.220;2023-12-20T06:29:11;8.90;99.90
7658;DHT22;8462;53.156;8.220;2023-12-20T06:31:38;9.00;99.90
7658;DHT22;8462;53.156;8.220;2023-12-20T06:34:05;9.00;99.90
7658;DHT22;8462;53.156;8.220;2023-12-20T06:36:33;9.00;99.90
7658;DHT22;8462;53.156;8.220;2023-12-20T06:39:00;9.10;99.90
7658;DHT22;8462;53.156;8.220;2023-12-20T06:41:28;9.10;99.90
7658;DHT22;8462;53.156;8.220;2023-12-20T06:43:55;9.10;99.90
7658;DHT22;8462;53.156;8.220;2023-12-20T06:46:22;9.20;99.90
7658;DHT22;8462;53.156;8.220;2023-12-20T06:48:50;9.20;99.90
7658;DHT22;8462;53.156;8.220;2023-12-20T06:51:17;9.20;99.90
7658;DHT22;8462;53.156;8.220;2023-12-20T06:53:45;9.30;99.90
7658;DHT22;8462;53.156;8.220;2023-12-20T06:56:12;9.20;99.90
7658;DHT22;8462;53.156;8.220;2023-12-20T06:58:40;9.20;99.90
7658;DHT22;8462;53.156;8.220;2023-12-20T07:01:11;9.20;99.90
7658;DHT22;8462;53.156;8.220;2023-12-20T07:03:38;9.20;99.90
7658;DHT22;8462;53.156;8.220;2023-12-20T07:06:06;9.30;99.90
7658;DHT22;8462;53.156;8.220;2023-12-20T07:08:33;9.30;99.90
7658;DHT22;8462;53.156;8.220;2023-12-20T07:11:00;9.30;99.90
7658;DHT22;8462;53.156;8.220;2023-12-20T07:13:27;9.30;99.90
7658;DHT22;8462;53.156;8.220;2023-12-20T07:15:55;9.30;99.90
7658;DHT22;8462;53.156;8.220;2023-12-20T07:18:24;9.30;99.90
7658;DHT22;8462;53.156;8.220;2023-12-20T07:20:51;9.30;99.90
7658;DHT22;8462;53.156;8.220;2023-12-20T07:23:17;9.30;99.90
7658;DHT22;8462;53.156;8.220;2023-12-20T07:25:45;9.30;99.90
7658;DHT22;8462;53.156;8.220;2023-12-20T07:28:12;9.30;99.90
7658;DHT22;8462;53.156;8.220;2023-12-20T07:30:39;9.20;99.90
7658;DHT22;8462;53.156;8.220;2023-12-20T07:33:09;9.20;99.90
7658;DHT22;8462;53.156;8.220;2023-12-20T07:35:37;9.30;99.90
7658;DHT22;8462;53.156;8.220;2023-12-20T07:38:04;9.20;99.90
7658;DHT22;8462;53.156;8.220;2023-12-20T07:40:32;9.20;99.90
7658;DHT22;8462;53.156;8.220;2023-12-20T07:42:59;9.30;99.90
7658;DHT22;8462;53.156;8.220;2023-12-20T07:45:26;9.30;99.90
7658;DHT22;8462;53.156;8.220;2023-12-20T07:47:53;9.30;99.90
7658;DHT22;8462;53.156;8.220;2023-12-20T07:50:22;9.30;99.90
7658;DHT22;8462;53.156;8.220;2023-12-20T07:52:49;9.30;99.90
7658;DHT22;8462;53.156;8.220;2023-12-20T07:55:16;9.30;99.90
7658;DHT22;8462;53.156;8.220;2023-12-20T07:57:42;9.40;99.90
7658;DHT22;8462;53.156;8.220;2023-12-20T08:00:10;9.40;99.90
7658;DHT22;8462;53.156;8.220;2023-12-20T08:02:38;9.40;99.90
7658;DHT22;8462;53.156;8.220;2023-12-20T08:05:05;9.40;99.90
7658;DHT22;8462;53.156;8.220;2023-12-20T08:07:33;9.40;99.90
7658;DHT22;8462;53.156;8.220;2023-12-20T08:10:00;9.40;99.90
7658;DHT22;8462;53.156;8.220;2023-12-20T08:12:27;9.40;99.90
7658;DHT22;8462;53.156;8.220;2023-12-20T08:14:54;9.50;99.90
7658;DHT22;8462;53.156;8.220;2023-12-20T08:17:23;9.50;99.90
7658;DHT22;8462;53.156;8.220;2023-12-20T08:19:51;9.50;99.90
7658;DHT22;8462;53.156;8.220;2023-12-20T08:22:18;9.50;99.90
7658;DHT22;8462;53.156;8.220;2023-12-20T08:24:47;9.50;99.90
7658;DHT22;8462;53.156;8.220;2023-12-20T08:27:15;9.60;99.90
7658;DHT22;8462;53.156;8.220;2023-12-20T08:29:44;9.60;99.90
7658;DHT22;8462;53.156;8.220;2023-12-20T08:32:11;9.60;99.90
7658;DHT22;8462;53.156;8.220;2023-12-20T08:34:43;9.60;99.90
7658;DHT22;8462;53.156;8.220;2023-12-20T08:37:12;9.60;99.90
7658;DHT22;8462;53.156;8.220;2023-12-20T08:39:39;9.60;99.90
7658;DHT22;8462;53.156;8.220;2023-12-20T08:42:08;9.60;99.90
7658;DHT22;8462;53.156;8.220;2023-12-20T08:44:36;9.60;99.90
7658;DHT22;8462;53.156;8.220;2023-12-20T08:47:04;9.60;99.90
7658;DHT22;8462;53.156;8.220;2023-12-20T08:49:32;9.50;99.90
7658;DHT22;8462;53.156;8.220;2023-12-20T08:52:00;9.50;99.90
7658;DHT22;8462;53.156;8.220;2023-12-20T08:54:27;9.50;99.90
7658;DHT22;8462;53.156;8.220;2023-12-20T08:56:56;9.50;99.90
7658;DHT22;8462;53.156;8.220;2023-12-20T08:59:24;9.50;99.90
7658;DHT22;8462;53.156;8.220;2023-12-20T09:02:01;9.50;99.90
7658;DHT22;8462;53.156;8.220;2023-12-20T09:04:28;9.50;99.90
7658;DHT22;8462;53.156;8.220;2023-12-20T09:06:55;9.50;99.90
7658;DHT22;8462;53.156;8.220;2023-12-20T09:09:22;9.50;99.90
7658;DHT22;8462;53.156;8.220;2023-12-20T09:11:49;9.50;99.90
7658;DHT22;8462;53.156;8.220;2023-12-20T09:14:19;9.70;99.90
7658;DHT22;8462;53.156;8.220;2023-12-20T09:16:47;9.80;99.90
7658;DHT22;8462;53.156;8.220;2023-12-20T09:19:16;9.80;99.90
7658;DHT22;8462;53.156;8.220;2023-12-20T09:21:45;9.80;99.90
7658;DHT22;8462;53.156;8.220;2023-12-20T09:24:12;9.60;99.90
7658;DHT22;8462;53.156;8.220;2023-12-20T09:26:40;9.30;99.90
7658;DHT22;8462;53.156;8.220;2023-12-20T09:29:09;8.90;99.90
7658;DHT22;8462;53.156;8.220;2023-12-20T09:31:41;8.60;99.90
7658;DHT22;8462;53.156;8.220;2023-12-20T09:34:11;8.30;99.90
7658;DHT22;8462;53.156;8.220;2023-12-20T09:36:40;8.00;99.90
7658;DHT22;8462;53.156;8.220;2023-12-20T09:39:13;7.90;99.90
7658;DHT22;8462;53.156;8.220;2023-12-20T09:41:43;7.70;99.90
7658;DHT22;8462;53.156;8.220;2023-12-20T09:44:15;7.70;99.90
7658;DHT22;8462;53.156;8.220;2023-12-20T09:46:44;7.60;99.90
7658;DHT22;8462;53.156;8.220;2023-12-20T09:49:14;7.60;99.90
7658;DHT22;8462;53.156;8.220;2023-12-20T09:51:42;7.60;99.90
7658;DHT22;8462;53.156;8.220;2023-12-20T09:54:11;7.60;99.90
7658;DHT22;8462;53.156;8.220;2023-12-20T09:56:39;7.60;99.90
7658;DHT22;8462;53.156;8.220;2023-12-20T09:59:06;7.60;99.90
7658;DHT22;8462;53.156;8.220;2023-12-20T10:01:35;7.70;99.90
7658;DHT22;8462;53.156;8.220;2023-12-20T10:04:05;7.70;99.90
7658;DHT22;8462;53.156;8.220;2023-12-20T10:06:37;7.70;99.90
7658;DHT22;8462;53.156;8.220;2023-12-20T10:09:04;7.80;99.90
7658;DHT22;8462;53.156;8.220;2023-12-20T10:11:31;7.80;99.90
7658;DHT22;8462;53.156;8.220;2023-12-20T10:14:00;7.80;99.90
7658;DHT22;8462;53.156;8.220;2023-12-20T10:16:27;7.90;99.90
7658;DHT22;8462;53.156;8.220;2023-12-20T10:18:55;7.90;99.90
7658;DHT22;8462;53.156;8.220;2023-12-20T10:21:23;7.90;99.90
7658;DHT22;8462;53.156;8.220;2023-12-20T10:23:53;7.90;99.90
7658;DHT22;8462;53.156;8.220;2023-12-20T10:26:21;8.00;99.90
7658;DHT22;8462;53.156;8.220;2023-12-20T10:28:51;8.00;99.90
7658;DHT22;8462;53.156;8.220;2023-12-20T10:31:29;8.10;99.90
7658;DHT22;8462;53.156;8.220;2023-12-20T10:33:58;8.20;99.90
7658;DHT22;8462;53.156;8.220;2023-12-20T10:36:26;8.10;99.90
7658;DHT22;8462;53.156;8.220;2023-12-20T10:38:56;8.20;99.90
7658;DHT22;8462;53.156;8.220;2023-12-20T10:41:26;8.20;99.90
7658;DHT22;8462;53.156;8.220;2023-12-20T10:43:59;8.30;99.90
7658;DHT22;8462;53.156;8.220;2023-12-20T10:46:26;8.40;99.90
7658;DHT22;8462;53.156;8.220;2023-12-20T10:48:54;8.60;99.90
7658;DHT22;8462;53.156;8.220;2023-12-20T10:51:22;8.70;99.90
7658;DHT22;8462;53.156;8.220;2023-12-20T10:53:50;8.70;99.90
7658;DHT22;8462;53.156;8.220;2023-12-20T10:56:19;8.80;99.90
7658;DHT22;8462;53.156;8.220;2023-12-20T10:58:47;8.80;99.90
7658;DHT22;8462;53.156;8.220;2023-12-20T11:01:17;8.90;99.90
7658;DHT22;8462;53.156;8.220;2023-12-20T11:03:49;8.90;99.90
7658;DHT22;8462;53.156;8.220;2023-12-20T11:06:29;8.90;99.90
7658;DHT22;8462;53.156;8.220;2023-12-20T11:09:10;8.90;99.90
7658;DHT22;8462;53.156;8.220;2023-12-20T11:11:54;9.00;99.90
7658;DHT22;8462;53.156;8.220;2023-12-20T11:14:27;9.00;99.90
7658;DHT22;8462;53.156;8.220;2023-12-20T11:17:06;9.00;99.90
7658;DHT22;8462;53.156;8.220;2023-12-20T11:19:38;9.00;99.90
7658;DHT22;8462;53.156;8.220;2023-12-20T11:22:11;9.00;99.90
7658;DHT22;8462;53.156;8.220;2023-12-20T11:24:44;9.10;99.90
7658;DHT22;8462;53.156;8.220;2023-12-20T11:27:14;9.20;99.90
7658;DHT22;8462;53.156;8.220;2023-12-20T11:29:41;9.20;99.90
7658;DHT22;8462;53.156;8.220;2023-12-20T11:32:28;9.20;99.90
7658;DHT22;8462;53.156;8.220;2023-12-20T11:34:56;9.20;99.90
7658;DHT22;8462;53.156;8.220;2023-12-20T11:37:29;9.20;99.90
7658;DHT22;8462;53.156;8.220;2023-12-20T11:40:01;9.30;99.90
7658;DHT22;8462;53.156;8.220;2023-12-20T11:42:38;9.30;99.90
7658;DHT22;8462;53.156;8.220;2023-12-20T11:45:08;9.30;99.90
7658;DHT22;8462;53.156;8.220;2023-12-20T11:47:36;9.30;99.90
7658;DHT22;8462;53.156;8.220;2023-12-20T11:50:04;9.40;99.90
7658;DHT22;8462;53.156;8.220;2023-12-20T11:52:33;9.40;99.90
7658;DHT22;8462;53.156;8.220;2023-12-20T11:55:01;9.50;99.90
7658;DHT22;8462;53.156;8.220;2023-12-20T11:57:30;9.60;99.90
7658;DHT22;8462;53.156;8.220;2023-12-20T12:00:00;9.60;99.90
7658;DHT22;8462;53.156;8.220;2023-12-20T12:02:29;9.80;99.90
7658;DHT22;8462;53.156;8.220;2023-12-20T12:04:57;10.00;99.90
7658;DHT22;8462;53.156;8.220;2023-12-20T12:07:28;10.20;99.90
7658;DHT22;8462;53.156;8.220;2023-12-20T12:09:56;10.30;99.90
7658;DHT22;8462;53.156;8.220;2023-12-20T12:12:23;10.30;99.90
7658;DHT22;8462;53.156;8.220;2023-12-20T12:14:54;10.40;99.90
7658;DHT22;8462;53.156;8.220;2023-12-20T12:17:25;10.50;99.90
7658;DHT22;8462;53.156;8.220;2023-12-20T12:20:02;10.60;99.90
7658;DHT22;8462;53.156;8.220;2023-12-20T12:22:31;10.60;99.90
7658;DHT22;8462;53.156;8.220;2023-12-20T12:24:59;10.70;99.90
7658;DHT22;8462;53.156;8.220;2023-12-20T12:27:36;10.70;99.90
7658;DHT22;8462;53.156;8.220;2023-12-20T12:30:06;10.60;99.90
7658;DHT22;8462;53.156;8.220;2023-12-20T12:32:35;10.50;99.90
7658;DHT22;8462;53.156;8.220;2023-12-20T12:35:04;10.30;99.90
7658;DHT22;8462;53.156;8.220;2023-12-20T12:37:34;10.10;99.90
7658;DHT22;8462;53.156;8.220;2023-12-20T12:40:04;9.80;99.90
7658;DHT22;8462;53.156;8.220;2023-12-20T12:42:32;9.60;99.90
7658;DHT22;8462;53.156;8.220;2023-12-20T12:45:00;9.40;99.90
7658;DHT22;8462;53.156;8.220;2023-12-20T12:47:27;9.30;99.90
7658;DHT22;8462;53.156;8.220;2023-12-20T12:49:57;9.10;99.90
7658;DHT22;8462;53.156;8.220;2023-12-20T12:52:24;9.00;99.90
7658;DHT22;8462;53.156;8.220;2023-12-20T12:54:52;8.90;99.90
7658;DHT22;8462;53.156;8.220;2023-12-20T12:57:19;8.90;99.90
7658;DHT22;8462;53.156;8.220;2023-12-20T12:59:48;8.90;99.90
7658;DHT22;8462;53.156;8.220;2023-12-20T13:02:16;8.90;99.90
7658;DHT22;8462;53.156;8.220;2023-12-20T13:04:44;9.00;99.90
7658;DHT22;8462;53.156;8.220;2023-12-20T13:07:14;9.20;99.90
7658;DHT22;8462;53.156;8.220;2023-12-20T13:09:42;9.30;99.90
7658;DHT22;8462;53.156;8.220;2023-12-20T13:12:11;9.40;99.90
7658;DHT22;8462;53.156;8.220;2023-12-20T13:14:38;9.50;99.90
7658;DHT22;8462;53.156;8.220;2023-12-20T13:17:06;9.50;99.90
7658;DHT22;8462;53.156;8.220;2023-12-20T13:19:35;9.50;99.90
7658;DHT22;8462;53.156;8.220;2023-12-20T13:22:02;9.60;99.90
7658;DHT22;8462;53.156;8.220;2023-12-20T13:24:32;9.60;99.90
7658;DHT22;8462;53.156;8.220;2023-12-20T13:27:05;9.60;99.90
7658;DHT22;8462;53.156;8.220;2023-12-20T13:29:32;9.60;99.90
7658;DHT22;8462;53.156;8.220;2023-12-20T13:32:00;9.70;99.90
7658;DHT22;8462;53.156;8.220;2023-12-20T13:34:30;9.80;99.90
7658;DHT22;8462;53.156;8.220;2023-12-20T13:36:59;9.90;99.90
7658;DHT22;8462;53.156;8.220;2023-12-20T13:39:26;9.90;99.90
7658;DHT22;8462;53.156;8.220;2023-12-20T13:41:55;9.90;99.90
7658;DHT22;8462;53.156;8.220;2023-12-20T13:44:22;9.90;99.90
7658;DHT22;8462;53.156;8.220;2023-12-20T13:46:49;9.90;99.90
7658;DHT22;8462;53.156;8.220;2023-12-20T13:49:17;9.90;99.90
7658;DHT22;8462;53.156;8.220;2023-12-20T13:51:45;9.90;99.90
7658;DHT22;8462;53.156;8.220;2023-12-20T13:54:14;9.90;99.90
7658;DHT22;8462;53.156;8.220;2023-12-20T13:56:43;10.00;99.90
7658;DHT22;8462;53.156;8.220;2023-12-20T13:59:13;10.00;99.90
7658;DHT22;8462;53.156;8.220;2023-12-20T14:01:42;10.00;99.90
7658;DHT22;8462;53.156;8.220;2023-12-20T14:04:10;10.00;99.90
7658;DHT22;8462;53.156;8.220;2023-12-20T14:06:37;9.90;99.90
7658;DHT22;8462;53.156;8.220;2023-12-20T14:09:04;9.90;99.90
7658;DHT22;8462;53.156;8.220;2023-12-20T14:11:38;9.90;99.90
7658;DHT22;8462;53.156;8.220;2023-12-20T14:14:07;9.90;99.90
7658;DHT22;8462;53.156;8.220;2023-12-20T14:16:36;9.90;99.90
7658;DHT22;8462;53.156;8.220;2023-12-20T14:19:03;9.90;99.90
7658;DHT22;8462;53.156;8.220;2023-12-20T14:21:34;9.80;99.90
7658;DHT22;8462;53.156;8.220;2023-12-20T14:24:02;9.80;99.90
7658;DHT22;8462;53.156;8.220;2023-12-20T14:26:31;9.70;99.90
7658;DHT22;8462;53.156;8.220;2023-12-20T14:29:01;9.70;99.90
7658;DHT22;8462;53.156;8.220;2023-12-20T14:31:37;9.80;99.90
7658;DHT22;8462;53.156;8.220;2023-12-20T14:34:04;9.70;99.90
7658;DHT22;8462;53.156;8.220;2023-12-20T14:36:32;9.70;99.90
7658;DHT22;8462;53.156;8.220;2023-12-20T14:39:01;9.80;99.90
7658;DHT22;8462;53.156;8.220;2023-12-20T14:41:34;9.70;99.90
7658;DHT22;8462;53.156;8.220;2023-12-20T14:44:04;9.80;99.90
7658;DHT22;8462;53.156;8.220;2023-12-20T14:46:31;9.80;99.90
7658;DHT22;8462;53.156;8.220;2023-12-20T14:49:01;9.80;99.90
7658;DHT22;8462;53.156;8.220;2023-12-20T14:51:29;9.80;99.90
7658;DHT22;8462;53.156;8.220;2023-12-20T14:53:56;9.80;99.90
7658;DHT22;8462;53.156;8.220;2023-12-20T14:56:25;9.70;99.90
7658;DHT22;8462;53.156;8.220;2023-12-20T14:58:55;9.80;99.90
7658;DHT22;8462;53.156;8.220;2023-12-20T15:01:22;9.70;99.90
7658;DHT22;8462;53.156;8.220;2023-12-20T15:03:49;9.70;99.90
7658;DHT22;8462;53.156;8.220;2023-12-20T15:06:19;9.60;99.90
7658;DHT22;8462;53.156;8.220;2023-12-20T15:08:47;9.60;99.90
7658;DHT22;8462;53.156;8.220;2023-12-20T15:11:14;9.60;99.90
7658;DHT22;8462;53.156;8.220;2023-12-20T15:13:42;9.60;99.90
7658;DHT22;8462;53.156;8.220;2023-12-20T15:16:10;9.60;99.90
7658;DHT22;8462;53.156;8.220;2023-12-20T15:18:39;9.60;99.90
7658;DHT22;8462;53.156;8.220;2023-12-20T15:21:06;9.50;99.90
7658;DHT22;8462;53.156;8.220;2023-12-20T15:23:35;9.50;99.90
7658;DHT22;8462;53.156;8.220;2023-12-20T15:26:04;9.40;99.90
7658;DHT22;8462;53.156;8.220;2023-12-20T15:28:31;9.30;99.90
7658;DHT22;8462;53.156;8.220;2023-12-20T15:30:59;9.20;99.90
7658;DHT22;8462;53.156;8.220;2023-12-20T15:33:26;9.00;99.90
7658;DHT22;8462;53.156;8.220;2023-12-20T15:35:53;8.90;99.90
7658;DHT22;8462;53.156;8.220;2023-12-20T15:38:20;8.80;99.90
7658;DHT22;8462;53.156;8.220;2023-12-20T15:40:49;8.80;99.90
7658;DHT22;8462;53.156;8.220;2023-12-20T15:43:16;8.80;99.90
7658;DHT22;8462;53.156;8.220;2023-12-20T15:45:43;8.80;99.90
7658;DHT22;8462;53.156;8.220;2023-12-20T15:48:13;8.80;99.90
7658;DHT22;8462;53.156;8.220;2023-12-20T15:50:44;8.80;99.90
7658;DHT22;8462;53.156;8.220;2023-12-20T15:53:12;8.80;99.90
7658;DHT22;8462;53.156;8.220;2023-12-20T15:55:39;8.80;99.90
7658;DHT22;8462;53.156;8.220;2023-12-20T15:58:10;8.80;99.90
7658;DHT22;8462;53.156;8.220;2023-12-20T16:00:37;8.90;99.90
7658;DHT22;8462;53.156;8.220;2023-12-20T16:03:04;8.80;99.90
7658;DHT22;8462;53.156;8.220;2023-12-20T16:05:32;8.80;99.90
7658;DHT22;8462;53.156;8.220;2023-12-20T16:08:01;8.90;99.90
7658;DHT22;8462;53.156;8.220;2023-12-20T16:10:28;8.90;99.90
7658;DHT22;8462;53.156;8.220;2023-12-20T16:12:56;8.90;99.90
7658;DHT22;8462;53.156;8.220;2023-12-20T16:15:23;8.90;99.90
7658;DHT22;8462;53.156;8.220;2023-12-20T16:17:52;8.90;99.90
7658;DHT22;8462;53.156;8.220;2023-12-20T16:20:20;8.90;99.90
7658;DHT22;8462;53.156;8.220;2023-12-20T16:22:52;8.80;99.90